createdAt,value
2019-03-03T00:00:03.754Z,12.60
2019-03-03T00:01:03.770Z,11.20
2019-03-03T00:02:03.797Z,11.80
2019-03-03T00:03:03.792Z,11.50
2019-03-03T00:04:03.801Z,13.80
2019-03-03T00:05:03.818Z,12.90
2019-03-03T00:06:03.840Z,11.30
2019-03-03T00:07:03.844Z,11.90
2019-03-03T00:08:03.856Z,13.50
2019-03-03T00:09:03.869Z,13.90
2019-03-03T00:10:03.879Z,14.00
2019-03-03T00:11:03.899Z,11.60
2019-03-03T00:12:03.900Z,14.60
2019-03-03T00:13:03.922Z,14.30
2019-03-03T00:14:03.938Z,16.20
2019-03-03T00:15:03.936Z,12.40
2019-03-03T00:16:03.955Z,12.30
2019-03-03T00:17:03.967Z,11.70
2019-03-03T00:18:03.978Z,11.70
2019-03-03T00:19:03.993Z,15.70
2019-03-03T00:20:04.000Z,11.90
2019-03-03T00:21:04.015Z,14.40
2019-03-03T00:22:04.033Z,14.80
2019-03-03T00:23:04.041Z,12.00
2019-03-03T00:24:04.057Z,14.60
2019-03-03T00:25:04.064Z,15.50
2019-03-03T00:26:04.193Z,14.40
2019-03-03T00:27:04.107Z,15.20
2019-03-03T00:28:04.102Z,15.50
2019-03-03T00:29:04.113Z,13.60
2019-03-03T00:30:04.126Z,16.00
2019-03-03T00:31:04.136Z,16.70
2019-03-03T00:32:04.148Z,13.10
2019-03-03T00:33:04.160Z,16.30
2019-03-03T00:34:04.189Z,16.10
2019-03-03T00:35:04.185Z,15.90
2019-03-03T00:36:04.251Z,17.20
2019-03-03T00:37:04.213Z,16.00
2019-03-03T00:38:04.230Z,14.90
2019-03-03T00:39:04.237Z,16.50
2019-03-03T00:40:04.254Z,19.30
2019-03-03T00:41:04.266Z,18.10
2019-03-03T00:42:04.272Z,17.80
2019-03-03T00:43:04.289Z,19.70
2019-03-03T00:44:04.301Z,21.80
2019-03-03T00:45:04.318Z,16.80
2019-03-03T00:46:04.330Z,20.60
2019-03-03T00:47:04.334Z,15.50
2019-03-03T00:48:04.357Z,16.90
2019-03-03T00:49:04.360Z,18.00
2019-03-03T00:50:04.379Z,16.90
2019-03-03T00:51:04.390Z,16.10
2019-03-03T00:52:04.410Z,18.20
2019-03-03T00:53:04.414Z,14.90
2019-03-03T00:54:04.424Z,17.10
2019-03-03T00:55:04.441Z,16.50
2019-03-03T00:56:04.478Z,17.40
2019-03-03T00:57:04.468Z,18.90
2019-03-03T00:58:04.496Z,20.10
2019-03-03T00:59:04.505Z,17.00
2019-03-03T01:00:04.501Z,19.30
2019-03-03T01:01:04.530Z,14.20
2019-03-03T01:02:04.523Z,17.50
2019-03-03T01:03:04.544Z,17.90
2019-03-03T01:04:04.546Z,13.40
2019-03-03T01:05:04.563Z,15.20
2019-03-03T01:06:04.577Z,16.90
2019-03-03T01:07:04.588Z,14.00
2019-03-03T01:08:04.594Z,16.60
2019-03-03T01:09:04.610Z,18.50
2019-03-03T01:10:04.629Z,18.00
2019-03-03T01:11:04.639Z,14.50
2019-03-03T01:12:04.660Z,13.50
2019-03-03T01:13:04.663Z,13.30
2019-03-03T01:14:04.685Z,16.60
2019-03-03T01:15:04.757Z,15.60
2019-03-03T01:16:04.696Z,14.50
2019-03-03T01:17:04.706Z,14.70
2019-03-03T01:18:04.721Z,15.20
2019-03-03T01:19:04.739Z,18.20
2019-03-03T01:20:05.045Z,18.20
2019-03-03T01:21:04.765Z,15.50
2019-03-03T01:22:04.784Z,13.70
2019-03-03T01:23:04.791Z,14.20
2019-03-03T01:24:04.806Z,13.90
2019-03-03T01:25:04.806Z,15.40
2019-03-03T01:26:04.819Z,13.40
2019-03-03T01:27:04.841Z,10.60
2019-03-03T01:28:04.851Z,12.70
2019-03-03T01:29:06.328Z,13.60
2019-03-03T01:30:04.884Z,14.10
2019-03-03T01:31:04.947Z,12.30
2019-03-03T01:32:04.907Z,12.80
2019-03-03T01:33:04.928Z,15.30
2019-03-03T01:34:04.960Z,14.60
2019-03-03T01:35:04.937Z,13.40
2019-03-03T01:36:04.946Z,14.90
2019-03-03T01:37:04.962Z,10.50
2019-03-03T01:38:04.984Z,12.80
2019-03-03T01:39:04.984Z,13.30
2019-03-03T01:40:05.005Z,13.60
2019-03-03T01:41:06.339Z,12.00
2019-03-03T01:42:05.032Z,11.50
2019-03-03T01:43:05.035Z,11.40
2019-03-03T01:44:05.045Z,14.00
2019-03-03T01:45:05.059Z,11.10
2019-03-03T01:46:05.075Z,12.40
2019-03-03T01:47:05.088Z,14.40
2019-03-03T01:48:05.094Z,11.70
2019-03-03T01:49:05.106Z,15.50
2019-03-03T01:50:05.123Z,12.00
2019-03-03T01:51:05.141Z,11.90
2019-03-03T01:52:05.143Z,10.00
2019-03-03T01:53:05.159Z,11.70
2019-03-03T01:54:05.168Z,13.90
2019-03-03T01:55:05.180Z,10.20
2019-03-03T01:56:05.201Z,13.50
2019-03-03T01:57:05.210Z,9.50
2019-03-03T01:58:05.219Z,11.70
2019-03-03T01:59:05.236Z,11.30
2019-03-03T02:00:05.246Z,10.60
2019-03-03T02:01:05.256Z,10.30
2019-03-03T02:02:05.268Z,9.80
2019-03-03T02:03:05.290Z,11.70
2019-03-03T02:04:05.299Z,14.20
2019-03-03T02:05:05.318Z,11.00
2019-03-03T02:06:05.323Z,8.80
2019-03-03T02:07:05.345Z,12.50
2019-03-03T02:08:05.344Z,13.40
2019-03-03T02:09:05.363Z,11.60
2019-03-03T02:10:05.367Z,11.20
2019-03-03T02:11:05.408Z,13.10
2019-03-03T02:12:05.424Z,12.20
2019-03-03T02:13:05.402Z,12.90
2019-03-03T02:14:05.419Z,11.10
2019-03-03T02:15:05.471Z,11.80
2019-03-03T02:16:05.439Z,13.40
2019-03-03T02:17:05.457Z,8.90
2019-03-03T02:18:05.465Z,11.10
2019-03-03T02:19:05.487Z,14.10
2019-03-03T02:20:05.503Z,11.20
2019-03-03T02:21:05.506Z,14.40
2019-03-03T02:22:05.518Z,10.20
2019-03-03T02:23:05.528Z,11.90
2019-03-03T02:24:05.541Z,12.30
2019-03-03T02:25:05.558Z,13.20
2019-03-03T02:26:05.571Z,10.70
2019-03-03T02:27:05.585Z,12.60
2019-03-03T02:28:05.592Z,11.10
2019-03-03T02:29:05.602Z,10.90
2019-03-03T02:30:05.621Z,12.40
2019-03-03T02:31:05.633Z,13.00
2019-03-03T02:32:05.647Z,10.40
2019-03-03T02:33:05.667Z,9.60
2019-03-03T02:34:05.683Z,12.20
2019-03-03T02:35:05.677Z,12.90
2019-03-03T02:36:05.766Z,12.70
2019-03-03T02:37:05.710Z,11.00
2019-03-03T02:38:05.718Z,10.20
2019-03-03T02:39:05.741Z,10.50
2019-03-03T02:40:05.739Z,11.90
2019-03-03T02:41:06.063Z,11.10
2019-03-03T02:42:05.766Z,11.80
2019-03-03T02:43:05.778Z,9.00
2019-03-03T02:44:05.832Z,10.80
2019-03-03T02:45:05.808Z,13.10
2019-03-03T02:46:05.843Z,13.90
2019-03-03T02:47:05.838Z,12.10
2019-03-03T02:48:05.842Z,8.40
2019-03-03T02:49:05.853Z,10.40
2019-03-03T02:50:05.864Z,13.50
2019-03-03T02:51:05.894Z,9.10
2019-03-03T02:52:05.902Z,10.20
2019-03-03T02:53:05.906Z,8.60
2019-03-03T02:54:05.927Z,7.70
2019-03-03T02:55:05.926Z,10.50
2019-03-03T02:56:05.941Z,12.20
2019-03-03T02:57:05.953Z,13.70
2019-03-03T02:58:05.987Z,10.60
2019-03-03T02:59:05.995Z,12.70
2019-03-03T03:00:05.994Z,11.30
2019-03-03T03:01:06.024Z,10.40
2019-03-03T03:02:06.032Z,15.90
2019-03-03T03:03:06.035Z,10.10
2019-03-03T03:04:06.038Z,11.70
2019-03-03T03:05:06.055Z,10.10
2019-03-03T03:06:06.080Z,11.40
2019-03-03T03:07:06.077Z,7.90
2019-03-03T03:08:06.119Z,9.60
2019-03-03T03:09:06.128Z,10.80
2019-03-03T03:10:06.145Z,11.90
2019-03-03T03:11:06.122Z,9.50
2019-03-03T03:12:06.139Z,11.60
2019-03-03T03:13:06.155Z,11.40
2019-03-03T03:14:06.178Z,9.80
2019-03-03T03:15:06.180Z,9.30
2019-03-03T03:16:06.185Z,11.10
2019-03-03T03:17:06.222Z,9.30
2019-03-03T03:18:06.216Z,11.00
2019-03-03T03:19:06.225Z,9.30
2019-03-03T03:20:06.248Z,11.50
2019-03-03T03:21:06.253Z,9.20
2019-03-03T03:22:06.260Z,10.60
2019-03-03T03:23:06.276Z,13.00
2019-03-03T03:24:06.287Z,10.70
2019-03-03T03:25:06.298Z,11.90
2019-03-03T03:26:06.320Z,9.20
2019-03-03T03:27:07.313Z,12.50
2019-03-03T03:28:06.338Z,10.30
2019-03-03T03:29:06.348Z,8.30
2019-03-03T03:30:06.374Z,9.00
2019-03-03T03:31:06.383Z,9.60
2019-03-03T03:32:06.403Z,11.00
2019-03-03T03:33:06.396Z,7.90
2019-03-03T03:34:06.414Z,10.90
2019-03-03T03:35:06.427Z,12.20
2019-03-03T03:36:06.435Z,11.00
2019-03-03T03:37:06.452Z,8.60
2019-03-03T03:38:06.460Z,8.60
2019-03-03T03:39:06.476Z,11.50
2019-03-03T03:40:06.494Z,11.20
2019-03-03T03:41:06.495Z,8.70
2019-03-03T03:42:06.503Z,8.50
2019-03-03T03:43:06.524Z,10.50
2019-03-03T03:44:06.536Z,10.70
2019-03-03T03:45:06.556Z,11.20
2019-03-03T03:46:06.561Z,9.30
2019-03-03T03:47:06.577Z,7.00
2019-03-03T03:48:06.590Z,11.00
2019-03-03T03:49:06.644Z,10.90
2019-03-03T03:50:06.636Z,10.00
2019-03-03T03:51:06.658Z,9.70
2019-03-03T03:52:06.643Z,12.70
2019-03-03T03:53:06.642Z,10.80
2019-03-03T03:54:06.664Z,12.50
2019-03-03T03:55:06.670Z,11.00
2019-03-03T03:56:06.678Z,9.10
2019-03-03T03:57:06.695Z,12.40
2019-03-03T03:58:06.704Z,12.80
2019-03-03T03:59:06.719Z,10.10
2019-03-03T04:00:06.727Z,11.10
2019-03-03T04:01:06.750Z,13.30
2019-03-03T04:02:06.755Z,9.30
2019-03-03T04:03:06.813Z,10.50
2019-03-03T04:04:06.779Z,11.30
2019-03-03T04:05:06.789Z,9.90
2019-03-03T04:06:06.808Z,9.60
2019-03-03T04:07:06.843Z,11.00
2019-03-03T04:08:06.839Z,10.00
2019-03-03T04:09:06.850Z,11.10
2019-03-03T04:10:06.864Z,8.90
2019-03-03T04:11:06.877Z,10.90
2019-03-03T04:12:06.894Z,10.00
2019-03-03T04:13:06.889Z,11.80
2019-03-03T04:14:06.904Z,9.60
2019-03-03T04:15:06.940Z,11.20
2019-03-03T04:16:06.936Z,12.10
2019-03-03T04:17:06.954Z,14.40
2019-03-03T04:18:06.949Z,12.30
2019-03-03T04:19:06.965Z,11.60
2019-03-03T04:20:06.977Z,11.40
2019-03-03T04:21:07.009Z,14.20
2019-03-03T04:22:07.007Z,12.30
2019-03-03T04:23:07.017Z,10.20
2019-03-03T04:24:07.029Z,10.40
2019-03-03T04:25:07.037Z,10.80
2019-03-03T04:26:07.049Z,10.70
2019-03-03T04:27:07.064Z,11.80
2019-03-03T04:28:07.071Z,9.90
2019-03-03T04:29:07.102Z,12.50
2019-03-03T04:30:07.102Z,11.60
2019-03-03T04:31:07.118Z,12.50
2019-03-03T04:32:07.125Z,14.40
2019-03-03T04:33:07.143Z,11.80
2019-03-03T04:34:07.154Z,12.40
2019-03-03T04:35:07.162Z,10.20
2019-03-03T04:36:07.179Z,9.50
2019-03-03T04:37:07.199Z,14.20
2019-03-03T04:38:07.209Z,11.80
2019-03-03T04:39:07.217Z,9.40
2019-03-03T04:40:07.250Z,12.40
2019-03-03T04:41:07.238Z,10.10
2019-03-03T04:42:07.256Z,10.50
2019-03-03T04:43:07.271Z,11.50
2019-03-03T04:44:07.283Z,10.60
2019-03-03T04:45:07.299Z,11.00
2019-03-03T04:46:07.304Z,10.20
2019-03-03T04:47:07.313Z,14.90
2019-03-03T04:48:07.333Z,11.00
2019-03-03T04:49:07.381Z,12.10
2019-03-03T04:50:07.405Z,13.50
2019-03-03T04:51:07.369Z,14.40
2019-03-03T04:52:07.370Z,13.10
2019-03-03T04:53:07.398Z,10.50
2019-03-03T04:54:07.399Z,9.50
2019-03-03T04:55:07.401Z,13.20
2019-03-03T04:56:07.412Z,13.80
2019-03-03T04:57:07.430Z,15.10
2019-03-03T04:58:07.439Z,13.30
2019-03-03T04:59:07.472Z,11.90
2019-03-03T05:00:07.464Z,15.90
2019-03-03T05:01:07.480Z,13.20
2019-03-03T05:02:07.493Z,11.00
2019-03-03T05:03:07.505Z,15.80
2019-03-03T05:04:07.513Z,11.00
2019-03-03T05:05:07.534Z,15.80
2019-03-03T05:06:07.536Z,15.80
2019-03-03T05:07:07.552Z,10.60
2019-03-03T05:08:07.568Z,12.10
2019-03-03T05:09:07.572Z,14.30
2019-03-03T05:10:07.586Z,10.50
2019-03-03T05:11:07.599Z,12.50
2019-03-03T05:12:07.619Z,12.20
2019-03-03T05:13:07.621Z,13.30
2019-03-03T05:14:07.637Z,14.70
2019-03-03T05:15:07.647Z,16.80
2019-03-03T05:16:07.662Z,14.10
2019-03-03T05:17:08.779Z,15.40
2019-03-03T05:18:07.685Z,11.00
2019-03-03T05:19:07.697Z,18.70
2019-03-03T05:20:07.726Z,13.80
2019-03-03T05:21:07.722Z,13.00
2019-03-03T05:22:07.795Z,12.80
2019-03-03T05:23:07.753Z,11.90
2019-03-03T05:24:07.761Z,15.00
2019-03-03T05:25:07.770Z,13.90
2019-03-03T05:26:07.782Z,13.30
2019-03-03T05:27:07.792Z,14.30
2019-03-03T05:28:07.815Z,10.90
2019-03-03T05:29:07.817Z,12.20
2019-03-03T05:30:07.828Z,10.40
2019-03-03T05:31:07.844Z,11.70
2019-03-03T05:32:07.855Z,13.30
2019-03-03T05:33:07.871Z,13.80
2019-03-03T05:34:07.880Z,12.30
2019-03-03T05:35:07.896Z,14.60
2019-03-03T05:36:07.902Z,15.80
2019-03-03T05:37:07.914Z,12.80
2019-03-03T05:38:07.942Z,15.50
2019-03-03T05:39:07.966Z,16.20
2019-03-03T05:40:07.962Z,14.70
2019-03-03T05:41:07.973Z,14.10
2019-03-03T05:42:07.973Z,11.20
2019-03-03T05:43:07.995Z,13.20
2019-03-03T05:44:08.011Z,15.00
2019-03-03T05:45:08.017Z,16.50
2019-03-03T05:46:08.034Z,13.50
2019-03-03T05:47:08.049Z,12.70
2019-03-03T05:48:08.050Z,13.30
2019-03-03T05:49:08.062Z,18.80
2019-03-03T05:50:08.076Z,10.70
2019-03-03T05:51:08.083Z,12.90
2019-03-03T05:52:08.102Z,14.10
2019-03-03T05:53:08.118Z,12.40
2019-03-03T05:54:08.136Z,14.30
2019-03-03T05:55:08.137Z,13.60
2019-03-03T05:56:08.171Z,15.20
2019-03-03T05:57:08.164Z,15.90
2019-03-03T05:58:08.199Z,13.30
2019-03-03T05:59:08.194Z,13.60
2019-03-03T06:00:08.196Z,13.70
2019-03-03T06:01:08.212Z,16.60
2019-03-03T06:02:08.229Z,15.80
2019-03-03T06:03:08.232Z,16.00
2019-03-03T06:04:08.246Z,18.90
2019-03-03T06:05:08.262Z,14.10
2019-03-03T06:06:08.270Z,13.10
2019-03-03T06:07:08.322Z,15.70
2019-03-03T06:08:08.292Z,14.50
2019-03-03T06:09:08.310Z,14.60
2019-03-03T06:10:08.317Z,17.40
2019-03-03T06:11:08.335Z,14.00
2019-03-03T06:12:08.344Z,16.20
2019-03-03T06:13:08.352Z,16.10
2019-03-03T06:14:08.372Z,14.60
2019-03-03T06:15:08.383Z,14.40
2019-03-03T06:16:08.388Z,14.40
2019-03-03T06:17:08.403Z,17.00
2019-03-03T06:18:08.416Z,16.40
2019-03-03T06:19:08.426Z,15.20
2019-03-03T06:20:08.439Z,15.50
2019-03-03T06:21:08.452Z,17.00
2019-03-03T06:22:08.464Z,18.70
2019-03-03T06:23:08.475Z,20.40
2019-03-03T06:24:08.540Z,16.90
2019-03-03T06:25:08.513Z,18.30
2019-03-03T06:26:08.512Z,18.40
2019-03-03T06:27:08.522Z,15.50
2019-03-03T06:28:08.550Z,18.80
2019-03-03T06:29:08.547Z,18.30
2019-03-03T06:30:08.566Z,14.80
2019-03-03T06:32:08.588Z,18.30
2019-03-03T06:33:08.604Z,18.20
2019-03-03T06:34:08.617Z,19.60
2019-03-03T06:35:08.620Z,15.00
2019-03-03T06:36:08.632Z,20.20
2019-03-03T06:37:08.641Z,15.70
2019-03-03T06:38:08.663Z,17.20
2019-03-03T06:39:08.668Z,16.70
2019-03-03T06:40:08.679Z,16.10
2019-03-03T06:41:08.696Z,18.10
2019-03-03T06:42:08.704Z,18.30
2019-03-03T06:43:08.713Z,16.00
2019-03-03T06:44:08.769Z,18.50
2019-03-03T06:45:08.744Z,18.50
2019-03-03T06:46:08.757Z,20.10
2019-03-03T06:47:08.763Z,19.10
2019-03-03T06:48:08.774Z,19.10
2019-03-03T06:49:08.787Z,18.50
2019-03-03T06:50:08.798Z,15.50
2019-03-03T06:51:08.812Z,19.20
2019-03-03T06:52:08.829Z,17.60
2019-03-03T06:53:08.835Z,17.50
2019-03-03T06:54:08.847Z,20.00
2019-03-03T06:55:08.858Z,14.80
2019-03-03T06:56:08.905Z,16.90
2019-03-03T06:57:08.955Z,17.70
2019-03-03T06:58:08.898Z,19.30
2019-03-03T06:59:08.911Z,17.80
2019-03-03T07:00:10.201Z,19.70
2019-03-03T07:01:08.942Z,17.30
2019-03-03T07:02:09.006Z,19.20
2019-03-03T07:03:08.953Z,20.40
2019-03-03T07:04:08.965Z,19.70
2019-03-03T07:05:08.977Z,16.30
2019-03-03T07:06:08.990Z,18.80
2019-03-03T07:07:09.011Z,15.40
2019-03-03T07:08:09.016Z,18.50
2019-03-03T07:09:09.025Z,20.20
2019-03-03T07:10:09.041Z,17.80
2019-03-03T07:11:10.096Z,18.30
2019-03-03T07:12:09.061Z,23.80
2019-03-03T07:13:09.076Z,19.90
2019-03-03T07:14:09.089Z,15.70
2019-03-03T07:15:09.099Z,20.40
2019-03-03T07:16:09.110Z,19.00
2019-03-03T07:17:09.126Z,19.00
2019-03-03T07:18:09.145Z,18.60
2019-03-03T07:19:09.146Z,21.30
2019-03-03T07:20:09.162Z,22.50
2019-03-03T07:21:09.187Z,21.70
2019-03-03T07:22:09.181Z,22.90
2019-03-03T07:23:09.195Z,18.10
2019-03-03T07:24:09.205Z,17.40
2019-03-03T07:25:09.245Z,22.30
2019-03-03T07:26:09.239Z,21.50
2019-03-03T07:27:09.275Z,21.60
2019-03-03T07:28:09.255Z,19.50
2019-03-03T07:29:09.269Z,20.50
2019-03-03T07:30:09.286Z,20.50
2019-03-03T07:31:09.289Z,20.90
2019-03-03T07:32:09.308Z,22.40
2019-03-03T07:33:09.314Z,19.60
2019-03-03T07:34:09.335Z,18.90
2019-03-03T07:35:09.337Z,21.50
2019-03-03T07:36:09.351Z,24.30
2019-03-03T07:37:09.365Z,19.50
2019-03-03T07:38:09.376Z,19.80
2019-03-03T07:39:09.389Z,19.20
2019-03-03T07:40:09.402Z,19.20
2019-03-03T07:41:09.413Z,21.80
2019-03-03T07:42:09.437Z,21.90
2019-03-03T07:43:09.436Z,22.60
2019-03-03T07:44:09.447Z,23.60
2019-03-03T07:45:09.469Z,24.10
2019-03-03T07:46:09.482Z,23.60
2019-03-03T07:47:09.483Z,18.20
2019-03-03T07:48:09.507Z,19.40
2019-03-03T07:49:09.517Z,22.00
2019-03-03T07:50:09.521Z,24.70
2019-03-03T07:51:09.530Z,24.20
2019-03-03T07:52:09.549Z,25.00
2019-03-03T07:53:09.563Z,17.50
2019-03-03T07:54:09.580Z,20.40
2019-03-03T07:55:09.596Z,20.50
2019-03-03T07:56:09.601Z,25.00
2019-03-03T07:57:09.610Z,24.10
2019-03-03T07:58:09.618Z,24.10
2019-03-03T07:59:10.050Z,23.80
2019-03-03T08:00:09.653Z,26.30
2019-03-03T08:01:09.675Z,21.40
2019-03-03T08:02:09.715Z,23.90
2019-03-03T08:03:09.680Z,21.80
2019-03-03T08:04:09.692Z,23.30
2019-03-03T08:05:09.850Z,24.40
2019-03-03T08:06:09.724Z,26.10
2019-03-03T08:07:09.740Z,24.50
2019-03-03T08:08:09.744Z,24.50
2019-03-03T08:09:09.760Z,26.30
2019-03-03T08:10:09.770Z,26.90
2019-03-03T08:11:09.773Z,29.10
2019-03-03T08:12:09.796Z,22.60
2019-03-03T08:13:09.863Z,22.90
2019-03-03T08:14:09.819Z,25.20
2019-03-03T08:15:09.875Z,24.60
2019-03-03T08:16:10.892Z,25.80
2019-03-03T08:17:09.853Z,24.30
2019-03-03T08:18:09.872Z,22.50
2019-03-03T08:19:09.873Z,24.70
2019-03-03T08:20:09.887Z,22.40
2019-03-03T08:21:09.899Z,25.90
2019-03-03T08:22:09.961Z,23.30
2019-03-03T08:23:09.928Z,30.30
2019-03-03T08:24:09.938Z,23.90
2019-03-03T08:25:09.954Z,23.70
2019-03-03T08:26:09.967Z,23.20
2019-03-03T08:27:09.981Z,25.20
2019-03-03T08:28:09.993Z,27.30
2019-03-03T08:29:10.006Z,22.60
2019-03-03T08:30:10.043Z,21.40
2019-03-03T08:31:10.029Z,24.10
2019-03-03T08:32:10.044Z,26.70
2019-03-03T08:33:10.051Z,28.30
2019-03-03T08:34:10.060Z,23.60
2019-03-03T08:35:10.071Z,24.30
2019-03-03T08:36:10.082Z,21.90
2019-03-03T08:37:10.114Z,27.00
2019-03-03T08:38:10.114Z,22.70
2019-03-03T08:39:10.132Z,25.40
2019-03-03T08:40:10.437Z,24.00
2019-03-03T08:41:10.154Z,26.60
2019-03-03T08:42:10.163Z,24.80
2019-03-03T08:43:10.177Z,26.80
2019-03-03T08:44:10.184Z,25.60
2019-03-03T08:45:10.194Z,25.20
2019-03-03T08:46:10.210Z,27.50
2019-03-03T08:47:10.221Z,27.70
2019-03-03T08:48:10.244Z,24.90
2019-03-03T08:49:10.252Z,26.70
2019-03-03T08:50:10.272Z,29.70
2019-03-03T08:51:10.267Z,26.20
2019-03-03T08:52:10.295Z,26.50
2019-03-03T08:53:10.298Z,29.00
2019-03-03T08:54:10.313Z,32.40
2019-03-03T08:55:10.316Z,27.50
2019-03-03T08:56:10.332Z,30.00
2019-03-03T08:57:10.351Z,28.30
2019-03-03T08:58:10.363Z,29.60
2019-03-03T08:59:10.368Z,30.40
2019-03-03T09:00:10.379Z,28.30
2019-03-03T09:01:10.394Z,27.70
2019-03-03T09:02:10.431Z,31.50
2019-03-03T09:03:10.431Z,29.70
2019-03-03T09:04:10.465Z,27.20
2019-03-03T09:05:10.453Z,28.20
2019-03-03T09:06:10.457Z,29.40
2019-03-03T09:07:10.474Z,27.00
2019-03-03T09:08:10.488Z,28.70
2019-03-03T09:09:10.491Z,23.80
2019-03-03T09:10:10.513Z,26.70
2019-03-03T09:11:10.515Z,29.20
2019-03-03T09:12:10.528Z,27.30
2019-03-03T09:13:10.541Z,27.80
2019-03-03T09:14:10.556Z,29.30
2019-03-03T09:15:10.563Z,28.60
2019-03-03T09:16:10.582Z,28.60
2019-03-03T09:17:10.591Z,25.40
2019-03-03T09:18:10.612Z,27.20
2019-03-03T09:19:10.616Z,28.80
2019-03-03T09:20:10.641Z,26.80
2019-03-03T09:21:10.640Z,29.50
2019-03-03T09:22:10.657Z,29.30
2019-03-03T09:23:10.670Z,26.80
2019-03-03T09:24:10.680Z,25.80
2019-03-03T09:25:10.692Z,24.00
2019-03-03T09:26:10.706Z,24.80
2019-03-03T09:27:10.741Z,24.30
2019-03-03T09:28:11.317Z,28.60
2019-03-03T09:29:10.747Z,26.80
2019-03-03T09:30:10.757Z,25.00
2019-03-03T09:31:10.774Z,24.30
2019-03-03T09:32:10.779Z,24.40
2019-03-03T09:33:10.793Z,28.80
2019-03-03T09:34:10.805Z,24.20
2019-03-03T09:35:10.877Z,22.90
2019-03-03T09:36:10.839Z,25.90
2019-03-03T09:37:10.846Z,24.70
2019-03-03T09:38:10.879Z,23.30
2019-03-03T09:39:10.862Z,23.30
2019-03-03T09:40:10.911Z,23.90
2019-03-03T09:41:10.890Z,22.40
2019-03-03T09:42:10.910Z,22.20
2019-03-03T09:43:11.136Z,24.50
2019-03-03T09:44:10.946Z,26.30
2019-03-03T09:45:10.937Z,24.90
2019-03-03T09:46:10.950Z,25.50
2019-03-03T09:47:10.965Z,25.40
2019-03-03T09:48:11.009Z,26.10
2019-03-03T09:49:10.986Z,27.40
2019-03-03T09:50:11.004Z,24.40
2019-03-03T09:51:11.013Z,24.80
2019-03-03T09:52:11.039Z,25.70
2019-03-03T09:53:11.048Z,24.40
2019-03-03T09:54:11.050Z,23.80
2019-03-03T09:55:11.063Z,22.60
2019-03-03T09:56:11.076Z,24.70
2019-03-03T09:57:11.088Z,22.70
2019-03-03T09:58:11.102Z,24.10
2019-03-03T09:59:11.113Z,23.70
2019-03-03T10:00:11.127Z,22.80
2019-03-03T10:01:11.151Z,24.30
2019-03-03T10:02:11.154Z,24.70
2019-03-03T10:03:11.167Z,23.50
2019-03-03T10:04:11.212Z,24.50
2019-03-03T10:05:11.195Z,24.70
2019-03-03T10:06:11.200Z,24.00
2019-03-03T10:07:11.263Z,25.70
2019-03-03T10:08:11.292Z,25.00
2019-03-03T10:09:11.274Z,25.60
2019-03-03T10:10:11.257Z,27.30
2019-03-03T10:11:11.259Z,25.90
2019-03-03T10:12:11.272Z,25.50
2019-03-03T10:13:11.289Z,27.10
2019-03-03T10:14:11.301Z,27.50
2019-03-03T10:15:11.332Z,27.10
2019-03-03T10:16:11.333Z,28.70
2019-03-03T10:17:11.338Z,27.40
2019-03-03T10:18:11.350Z,28.20
2019-03-03T10:19:11.384Z,28.60
2019-03-03T10:20:11.377Z,28.50
2019-03-03T10:21:11.407Z,28.00
2019-03-03T10:22:11.404Z,28.30
2019-03-03T10:23:11.412Z,28.10
2019-03-03T10:24:11.445Z,26.50
2019-03-03T10:25:11.435Z,28.90
2019-03-03T10:26:11.458Z,28.90
2019-03-03T10:27:11.458Z,27.30
2019-03-03T10:28:11.479Z,28.00
2019-03-03T10:29:11.496Z,28.30
2019-03-03T10:30:11.508Z,27.80
2019-03-03T10:31:11.519Z,26.90
2019-03-03T10:32:11.527Z,27.10
2019-03-03T10:33:11.536Z,27.30
2019-03-03T10:34:11.562Z,26.40
2019-03-03T10:35:11.560Z,27.70
2019-03-03T10:36:11.603Z,26.60
2019-03-03T10:37:11.588Z,26.10
2019-03-03T10:38:11.621Z,26.20
2019-03-03T10:39:11.642Z,25.60
2019-03-03T10:40:11.622Z,26.10
2019-03-03T10:41:11.650Z,25.90
2019-03-03T10:42:11.709Z,25.40
2019-03-03T10:43:11.672Z,26.60
2019-03-03T10:44:11.683Z,26.00
2019-03-03T10:45:11.695Z,26.60
2019-03-03T10:46:11.701Z,26.50
2019-03-03T10:47:11.708Z,26.20
2019-03-03T10:48:11.715Z,26.20
2019-03-03T10:49:11.733Z,25.50
2019-03-03T10:50:11.748Z,25.90
2019-03-03T10:51:11.762Z,25.30
2019-03-03T10:52:11.766Z,25.70
2019-03-03T10:53:11.785Z,26.50
2019-03-03T10:54:11.805Z,26.00
2019-03-03T10:55:11.816Z,25.50
2019-03-03T10:56:11.848Z,27.10
2019-03-03T10:57:11.833Z,26.40
2019-03-03T10:58:11.846Z,26.40
2019-03-03T10:59:11.857Z,26.40
2019-03-03T11:00:11.868Z,26.90
2019-03-03T11:01:11.887Z,26.80
2019-03-03T11:02:11.895Z,27.30
2019-03-03T11:03:11.903Z,26.00
2019-03-03T11:04:11.924Z,27.60
2019-03-03T11:05:11.937Z,25.90
2019-03-03T11:06:11.950Z,26.20
2019-03-03T11:07:11.959Z,25.70
2019-03-03T11:08:11.979Z,26.10
2019-03-03T11:09:11.995Z,26.20
2019-03-03T11:10:11.993Z,25.50
2019-03-03T11:11:12.009Z,25.20
2019-03-03T11:12:12.028Z,25.80
2019-03-03T11:13:12.044Z,25.80
2019-03-03T11:14:12.054Z,23.90
2019-03-03T11:15:18.383Z,23.80
2019-03-03T11:16:12.069Z,25.20
2019-03-03T11:17:12.085Z,23.40
2019-03-03T11:18:14.007Z,23.80
2019-03-03T11:19:12.108Z,23.40
2019-03-03T11:20:12.125Z,23.20
2019-03-03T11:21:12.133Z,22.40
2019-03-03T11:22:12.152Z,23.50
2019-03-03T11:23:12.163Z,23.20
2019-03-03T11:24:12.176Z,23.40
2019-03-03T11:25:12.323Z,23.00
2019-03-03T11:26:12.204Z,22.90
2019-03-03T11:27:12.217Z,22.80
2019-03-03T11:28:12.224Z,22.40
2019-03-03T11:29:12.251Z,22.30
2019-03-03T11:30:12.249Z,22.70
2019-03-03T11:31:12.263Z,22.20
2019-03-03T11:32:12.283Z,22.00
2019-03-03T11:33:12.294Z,21.90
2019-03-03T11:34:12.301Z,23.40
2019-03-03T11:35:12.319Z,22.90
2019-03-03T11:36:12.327Z,23.40
2019-03-03T11:37:14.082Z,22.90
2019-03-03T11:38:12.355Z,23.30
2019-03-03T11:39:12.366Z,22.80
2019-03-03T11:40:12.378Z,22.80
2019-03-03T11:41:12.387Z,22.20
2019-03-03T11:42:12.408Z,21.70
2019-03-03T11:43:12.427Z,21.20
2019-03-03T11:44:12.432Z,22.20
2019-03-03T11:45:12.457Z,22.10
2019-03-03T11:46:12.456Z,20.90
2019-03-03T11:47:12.523Z,20.10
2019-03-03T11:48:12.479Z,19.90
2019-03-03T11:49:12.491Z,21.10
2019-03-03T11:50:12.509Z,20.80
2019-03-03T11:51:12.540Z,21.20
2019-03-03T11:52:12.532Z,20.90
2019-03-03T11:53:12.545Z,20.40
2019-03-03T11:54:12.558Z,19.80
2019-03-03T11:55:12.573Z,19.70
2019-03-03T11:56:12.594Z,19.10
2019-03-03T11:57:12.595Z,19.80
2019-03-03T11:58:12.633Z,20.10
2019-03-03T11:59:12.631Z,19.60
2019-03-03T12:00:12.639Z,20.00
2019-03-03T12:01:12.648Z,19.50
2019-03-03T12:02:12.661Z,20.60
2019-03-03T12:03:12.672Z,19.60
2019-03-03T12:04:12.699Z,19.40
2019-03-03T12:05:12.702Z,19.10
2019-03-03T12:06:12.714Z,19.10
2019-03-03T12:07:12.720Z,18.90
2019-03-03T12:08:12.742Z,20.70
2019-03-03T12:09:12.751Z,19.50
2019-03-03T12:10:12.765Z,20.40
2019-03-03T12:11:14.879Z,20.10
2019-03-03T12:12:12.789Z,20.50
2019-03-03T12:13:14.549Z,20.60
2019-03-03T12:14:12.866Z,18.70
2019-03-03T12:15:12.825Z,21.30
2019-03-03T12:16:12.853Z,20.60
2019-03-03T12:17:12.854Z,20.70
2019-03-03T12:18:12.875Z,21.60
2019-03-03T12:19:12.906Z,20.70
2019-03-03T12:20:12.919Z,20.40
2019-03-03T12:21:12.940Z,21.00
2019-03-03T12:22:12.920Z,21.10
2019-03-03T12:23:12.936Z,20.90
2019-03-03T12:24:12.957Z,20.60
2019-03-03T12:25:12.957Z,20.10
2019-03-03T12:26:12.979Z,21.40
2019-03-03T12:27:12.996Z,20.00
2019-03-03T12:28:12.998Z,20.50
2019-03-03T12:29:13.009Z,21.10
2019-03-03T12:30:13.022Z,20.20
2019-03-03T12:31:13.039Z,20.00
2019-03-03T12:32:13.054Z,20.90
2019-03-03T12:33:13.066Z,19.90
2019-03-03T12:34:13.147Z,20.30
2019-03-03T12:36:14.163Z,20.80
2019-03-03T12:39:13.235Z,18.20
2019-03-03T12:40:13.358Z,18.30
2019-03-03T12:41:14.412Z,19.40
2019-03-03T12:42:13.771Z,18.60
2019-03-03T12:44:14.221Z,18.30
2019-03-03T12:45:15.118Z,18.20
2019-03-03T12:46:14.102Z,18.20
2019-03-03T12:47:14.298Z,18.40
2019-03-03T12:48:13.987Z,18.10
2019-03-03T12:49:13.627Z,18.40
2019-03-03T12:50:14.168Z,18.80
2019-03-03T12:51:14.630Z,18.70
2019-03-03T12:52:13.442Z,18.90
2019-03-03T12:53:13.578Z,19.60
2019-03-03T12:54:13.340Z,19.40
2019-03-03T12:55:13.398Z,19.90
2019-03-03T12:56:13.376Z,19.00
2019-03-03T12:57:13.380Z,18.40
2019-03-03T12:58:13.399Z,19.20